createdAt,value
2022-11-05T00:00:59.924Z,24.00
2022-11-05T00:01:59.997Z,22.10
2022-11-05T00:02:59.913Z,24.50
2022-11-05T00:03:59.956Z,24.10
2022-11-05T00:04:59.927Z,24.10
2022-11-05T00:05:59.891Z,21.50
2022-11-05T00:06:59.891Z,21.80
2022-11-05T00:07:59.914Z,22.70
2022-11-05T00:08:59.878Z,18.50
2022-11-05T00:09:59.866Z,19.80
2022-11-05T00:10:59.873Z,23.10
2022-11-05T00:11:59.854Z,25.60
2022-11-05T00:12:59.839Z,20.30
2022-11-05T00:13:59.851Z,21.90
2022-11-05T00:14:59.837Z,21.90
2022-11-05T00:15:59.818Z,23.40
2022-11-05T00:16:59.836Z,23.40
2022-11-05T00:17:59.822Z,20.30
2022-11-05T00:18:59.818Z,26.30
2022-11-05T00:19:59.829Z,26.50
2022-11-05T00:20:59.793Z,27.50
2022-11-05T00:21:59.789Z,23.60
2022-11-05T00:22:59.789Z,24.60
2022-11-05T00:23:59.778Z,22.20
2022-11-05T00:24:59.791Z,19.90
2022-11-05T00:25:59.773Z,24.40
2022-11-05T00:26:59.773Z,24.00
2022-11-05T00:27:59.750Z,24.40
2022-11-05T00:28:59.761Z,25.70
2022-11-05T00:29:59.749Z,22.10
2022-11-05T00:30:59.735Z,23.10
2022-11-05T00:31:59.740Z,25.70
2022-11-05T00:32:59.726Z,24.80
2022-11-05T00:33:59.717Z,21.50
2022-11-05T00:34:59.745Z,30.00
2022-11-05T00:35:59.689Z,26.10
2022-11-05T00:37:00.697Z,26.60
2022-11-05T00:37:59.701Z,25.00
2022-11-05T00:38:59.680Z,26.80
2022-11-05T00:39:59.681Z,27.00
2022-11-05T00:40:59.673Z,24.70
2022-11-05T00:41:59.653Z,24.90
2022-11-05T00:42:59.654Z,22.30
2022-11-05T00:43:59.673Z,26.40
2022-11-05T00:44:59.650Z,28.20
2022-11-05T00:45:59.633Z,26.30
2022-11-05T00:47:00.054Z,27.80
2022-11-05T00:48:00.608Z,24.80
2022-11-05T00:48:59.611Z,27.10
2022-11-05T00:49:59.639Z,25.80
2022-11-05T00:50:59.613Z,25.50
2022-11-05T00:51:59.582Z,24.60
2022-11-05T00:52:59.805Z,26.30
2022-11-05T00:53:59.636Z,25.80
2022-11-05T00:54:59.568Z,20.20
2022-11-05T00:55:59.585Z,25.00
2022-11-05T00:57:04.458Z,25.60
2022-11-05T00:58:01.581Z,24.00
2022-11-05T00:58:59.562Z,25.00
2022-11-05T00:59:59.541Z,26.70
2022-11-05T01:00:59.538Z,28.90
2022-11-05T01:01:59.658Z,24.10
2022-11-05T01:02:59.517Z,28.70
2022-11-05T01:03:59.514Z,28.90
2022-11-05T01:04:59.523Z,30.80
2022-11-05T01:05:59.526Z,27.80
2022-11-05T01:06:59.500Z,26.50
2022-11-05T01:07:59.530Z,26.80
2022-11-05T01:08:59.487Z,26.90
2022-11-05T01:09:59.498Z,22.80
2022-11-05T01:10:59.498Z,24.80
2022-11-05T01:11:59.479Z,22.60
2022-11-05T01:12:59.455Z,22.40
2022-11-05T01:13:59.510Z,26.00
2022-11-05T01:14:59.459Z,24.40
2022-11-05T01:15:59.448Z,25.00
2022-11-05T01:16:59.517Z,28.80
2022-11-05T01:17:59.421Z,26.20
2022-11-05T01:18:59.427Z,30.10
2022-11-05T01:19:59.437Z,26.70
2022-11-05T01:20:59.407Z,30.60
2022-11-05T01:21:59.417Z,27.10
2022-11-05T01:22:59.402Z,29.60
2022-11-05T01:23:59.390Z,23.70
2022-11-05T01:24:59.398Z,28.90
2022-11-05T01:25:59.378Z,28.50
2022-11-05T01:26:59.410Z,26.40
2022-11-05T01:27:59.378Z,24.30
2022-11-05T01:28:59.404Z,30.90
2022-11-05T01:29:59.422Z,28.90
2022-11-05T01:30:59.338Z,24.30
2022-11-05T01:31:59.353Z,27.30
2022-11-05T01:32:59.342Z,24.60
2022-11-05T01:33:59.317Z,25.40
2022-11-05T01:34:59.322Z,25.90
2022-11-05T01:35:59.318Z,23.70
2022-11-05T01:36:59.318Z,31.30
2022-11-05T01:37:59.307Z,31.00
2022-11-05T01:38:59.306Z,25.00
2022-11-05T01:39:59.314Z,32.60
2022-11-05T01:40:59.286Z,24.80
2022-11-05T01:41:59.305Z,29.20
2022-11-05T01:42:59.274Z,24.20
2022-11-05T01:43:59.281Z,23.40
2022-11-05T01:44:59.309Z,26.10
2022-11-05T01:46:00.263Z,26.20
2022-11-05T01:46:59.271Z,26.70
2022-11-05T01:47:59.257Z,26.50
2022-11-05T01:49:03.152Z,29.00
2022-11-05T01:50:00.230Z,27.50
2022-11-05T01:50:59.242Z,28.20
2022-11-05T01:51:59.254Z,27.20
2022-11-05T01:52:59.215Z,25.20
2022-11-05T01:53:59.220Z,24.00
2022-11-05T01:54:59.203Z,34.50
2022-11-05T01:55:59.208Z,30.90
2022-11-05T01:56:59.220Z,30.00
2022-11-05T01:57:59.203Z,32.80
2022-11-05T01:58:59.184Z,29.10
2022-11-05T01:59:59.192Z,27.10
2022-11-05T02:00:59.172Z,26.40
2022-11-05T02:01:59.314Z,26.60
2022-11-05T02:02:59.223Z,32.90
2022-11-05T02:03:59.139Z,28.90
2022-11-05T02:04:59.141Z,32.20
2022-11-05T02:05:59.165Z,35.60
2022-11-05T02:06:59.128Z,34.40
2022-11-05T02:07:59.139Z,29.00
2022-11-05T02:08:59.133Z,33.20
2022-11-05T02:09:59.111Z,30.60
2022-11-05T02:10:59.117Z,33.50
2022-11-05T02:11:59.109Z,29.50
2022-11-05T02:12:59.095Z,33.20
2022-11-05T02:13:59.103Z,26.80
2022-11-05T02:14:59.095Z,31.70
2022-11-05T02:15:59.079Z,33.20
2022-11-05T02:16:59.070Z,36.00
2022-11-05T02:17:59.087Z,34.40
2022-11-05T02:18:59.071Z,32.30
2022-11-05T02:19:59.043Z,31.40
2022-11-05T02:20:59.082Z,32.60
2022-11-05T02:21:59.035Z,28.30
2022-11-05T02:22:59.028Z,27.30
2022-11-05T02:23:59.043Z,29.50
2022-11-05T02:24:59.016Z,28.60
2022-11-05T02:26:00.008Z,26.00
2022-11-05T02:26:59.011Z,27.10
2022-11-05T02:27:58.992Z,30.40
2022-11-05T02:28:59.014Z,28.20
2022-11-05T02:29:59.000Z,28.10
2022-11-05T02:30:58.980Z,26.10
2022-11-05T02:31:58.959Z,24.90
2022-11-05T02:33:00.036Z,23.30
2022-11-05T02:33:58.992Z,28.10
2022-11-05T02:34:58.955Z,23.10
2022-11-05T02:35:58.951Z,31.80
2022-11-05T02:36:58.940Z,29.70
2022-11-05T02:37:58.936Z,32.50
2022-11-05T02:38:58.943Z,25.90
2022-11-05T02:39:58.943Z,27.30
2022-11-05T02:40:58.928Z,24.30
2022-11-05T02:42:03.627Z,24.40
2022-11-05T02:43:00.920Z,25.20
2022-11-05T02:43:58.899Z,24.90
2022-11-05T02:44:58.923Z,29.30
2022-11-05T02:45:58.890Z,31.40
2022-11-05T02:46:58.884Z,25.40
2022-11-05T02:47:58.886Z,24.80
2022-11-05T02:48:58.871Z,26.90
2022-11-05T02:49:58.887Z,25.80
2022-11-05T02:50:58.866Z,27.40
2022-11-05T02:51:58.851Z,32.60
2022-11-05T02:52:58.863Z,25.90
2022-11-05T02:53:58.843Z,24.70
2022-11-05T02:54:58.840Z,29.60
2022-11-05T02:55:58.852Z,29.40
2022-11-05T02:56:58.907Z,30.00
2022-11-05T02:57:58.811Z,25.20
2022-11-05T02:58:58.807Z,34.00
2022-11-05T02:59:58.825Z,30.20
2022-11-05T03:00:58.795Z,27.90
2022-11-05T03:01:58.901Z,31.10
2022-11-05T03:02:58.846Z,22.60
2022-11-05T03:03:58.827Z,27.60
2022-11-05T03:04:58.775Z,30.20
2022-11-05T03:05:58.807Z,27.20
2022-11-05T03:06:58.759Z,37.00
2022-11-05T03:07:58.749Z,35.70
2022-11-05T03:08:58.761Z,30.40
2022-11-05T03:09:58.742Z,33.50
2022-11-05T03:10:58.750Z,29.20
2022-11-05T03:11:58.773Z,31.50
2022-11-05T03:12:58.710Z,30.50
2022-11-05T03:13:58.699Z,30.70
2022-11-05T03:14:58.711Z,27.50
2022-11-05T03:15:58.698Z,28.40
2022-11-05T03:16:58.718Z,28.00
2022-11-05T03:17:58.840Z,27.10
2022-11-05T03:18:58.671Z,27.90
2022-11-05T03:19:58.667Z,25.80
2022-11-05T03:20:58.667Z,25.10
2022-11-05T03:21:58.658Z,28.50
2022-11-05T03:22:58.646Z,30.60
2022-11-05T03:23:58.652Z,28.90
2022-11-05T03:24:58.635Z,29.30
2022-11-05T03:25:58.629Z,30.30
2022-11-05T03:26:58.670Z,30.10
2022-11-05T03:27:58.624Z,31.00
2022-11-05T03:28:58.611Z,28.60
2022-11-05T03:29:58.614Z,34.30
2022-11-05T03:30:58.601Z,33.50
2022-11-05T03:31:58.596Z,34.60
2022-11-05T03:32:58.589Z,32.00
2022-11-05T03:33:58.576Z,42.50
2022-11-05T03:34:58.578Z,29.60
2022-11-05T03:35:58.586Z,34.30
2022-11-05T03:36:58.604Z,45.10
2022-11-05T03:37:58.573Z,42.40
2022-11-05T03:38:58.585Z,35.70
2022-11-05T03:39:58.541Z,29.00
2022-11-05T03:40:58.535Z,27.80
2022-11-05T03:41:58.551Z,29.60
2022-11-05T03:42:58.522Z,34.90
2022-11-05T03:43:58.527Z,35.00
2022-11-05T03:44:58.538Z,28.70
2022-11-05T03:45:58.514Z,28.40
2022-11-05T03:46:58.494Z,32.80
2022-11-05T03:47:58.518Z,26.80
2022-11-05T03:48:58.536Z,27.10
2022-11-05T03:49:58.500Z,29.40
2022-11-05T03:50:58.474Z,28.30
2022-11-05T03:51:58.483Z,29.60
2022-11-05T03:52:58.470Z,30.70
2022-11-05T03:53:58.487Z,34.80
2022-11-05T03:54:58.462Z,27.50
2022-11-05T03:55:59.289Z,28.30
2022-11-05T03:56:58.443Z,24.80
2022-11-05T03:57:58.456Z,23.20
2022-11-05T03:58:59.265Z,28.60
2022-11-05T03:59:59.471Z,25.40
2022-11-05T04:00:58.414Z,30.80
2022-11-05T04:01:58.542Z,36.70
2022-11-05T04:02:58.617Z,34.70
2022-11-05T04:03:58.395Z,32.30
2022-11-05T04:04:58.375Z,32.70
2022-11-05T04:05:58.463Z,27.30
2022-11-05T04:06:58.369Z,29.70
2022-11-05T04:07:58.391Z,26.80
2022-11-05T04:08:58.350Z,27.80
2022-11-05T04:09:58.371Z,33.40
2022-11-05T04:10:58.350Z,30.70
2022-11-05T04:11:58.338Z,32.30
2022-11-05T04:12:58.496Z,34.90
2022-11-05T04:13:58.335Z,29.20
2022-11-05T04:14:58.324Z,24.50
2022-11-05T04:15:58.310Z,28.70
2022-11-05T04:16:58.311Z,32.20
2022-11-05T04:17:58.323Z,29.30
2022-11-05T04:18:58.290Z,31.20
2022-11-05T04:19:58.290Z,37.10
2022-11-05T04:20:58.283Z,30.40
2022-11-05T04:21:58.286Z,36.10
2022-11-05T04:22:58.327Z,31.70
2022-11-05T04:23:58.270Z,32.30
2022-11-05T04:24:58.255Z,34.50
2022-11-05T04:25:58.268Z,35.30
2022-11-05T04:26:58.246Z,35.90
2022-11-05T04:27:58.267Z,36.00
2022-11-05T04:28:59.756Z,42.30
2022-11-05T04:29:58.222Z,32.30
2022-11-05T04:30:58.238Z,33.20
2022-11-05T04:31:58.243Z,29.90
2022-11-05T04:32:58.302Z,30.60
2022-11-05T04:33:58.230Z,34.90
2022-11-05T04:34:58.198Z,34.80
2022-11-05T04:35:58.191Z,39.10
2022-11-05T04:36:58.206Z,38.20
2022-11-05T04:37:58.182Z,31.60
2022-11-05T04:38:58.198Z,32.90
2022-11-05T04:39:58.182Z,32.80
2022-11-05T04:40:58.170Z,42.80
2022-11-05T04:41:58.162Z,39.80
2022-11-05T04:42:58.170Z,33.90
2022-11-05T04:43:58.152Z,42.20
2022-11-05T04:44:58.161Z,43.10
2022-11-05T04:45:58.153Z,35.20
2022-11-05T04:46:58.175Z,37.00
2022-11-05T04:47:58.134Z,47.00
2022-11-05T04:48:58.157Z,35.40
2022-11-05T04:49:58.122Z,37.50
2022-11-05T04:50:58.162Z,41.80
2022-11-05T04:51:58.103Z,40.70
2022-11-05T04:52:58.112Z,35.50
2022-11-05T04:53:58.091Z,45.70
2022-11-05T04:54:58.110Z,38.50
2022-11-05T04:55:58.091Z,50.70
2022-11-05T04:56:58.065Z,44.40
2022-11-05T04:57:58.070Z,35.10
2022-11-05T04:58:58.079Z,40.30
2022-11-05T04:59:58.065Z,43.40
2022-11-05T05:00:58.116Z,32.30
2022-11-05T05:01:58.090Z,39.80
2022-11-05T05:02:58.058Z,40.70
2022-11-05T05:03:58.075Z,48.30
2022-11-05T05:04:58.051Z,36.10
2022-11-05T05:06:03.385Z,35.50
2022-11-05T05:07:00.033Z,43.30
2022-11-05T05:07:58.006Z,38.60
2022-11-05T05:08:58.033Z,42.20
2022-11-05T05:09:58.017Z,36.70
2022-11-05T05:10:58.041Z,36.90
2022-11-05T05:11:58.014Z,36.30
2022-11-05T05:12:57.997Z,43.50
2022-11-05T05:13:57.973Z,41.30
2022-11-05T05:14:57.975Z,37.00
2022-11-05T05:15:57.989Z,59.30
2022-11-05T05:16:57.953Z,55.50
2022-11-05T05:17:57.951Z,41.80
2022-11-05T05:18:57.959Z,47.10
2022-11-05T05:19:57.932Z,64.40
2022-11-05T05:20:57.949Z,54.80
2022-11-05T05:21:57.955Z,59.00
2022-11-05T05:22:57.943Z,60.60
2022-11-05T05:23:57.957Z,71.80
2022-11-05T05:24:57.928Z,56.00
2022-11-05T05:25:57.921Z,71.00
2022-11-05T05:26:57.900Z,62.30
2022-11-05T05:27:57.903Z,52.90
2022-11-05T05:28:57.884Z,42.60
2022-11-05T05:29:57.872Z,45.10
2022-11-05T05:30:58.915Z,40.10
2022-11-05T05:31:58.900Z,65.80
2022-11-05T05:32:57.883Z,51.40
2022-11-05T05:33:58.440Z,55.90
2022-11-05T05:34:57.852Z,59.30
2022-11-05T05:35:57.884Z,55.10
2022-11-05T05:36:57.832Z,58.50
2022-11-05T05:37:57.850Z,45.80
2022-11-05T05:38:57.832Z,56.40
2022-11-05T05:39:57.853Z,60.90
2022-11-05T05:40:57.815Z,55.80
2022-11-05T05:41:57.869Z,64.00
2022-11-05T05:42:57.803Z,55.90
2022-11-05T05:43:57.807Z,63.40
2022-11-05T05:44:57.795Z,62.00
2022-11-05T05:45:57.784Z,60.80
2022-11-05T05:46:57.777Z,56.20
2022-11-05T05:47:57.805Z,57.00
2022-11-05T05:48:57.776Z,55.10
2022-11-05T05:49:57.768Z,52.60
2022-11-05T05:50:58.485Z,50.60
2022-11-05T05:51:57.766Z,60.10
2022-11-05T05:52:57.744Z,67.30
2022-11-05T05:53:57.759Z,60.50
2022-11-05T05:54:57.728Z,67.60
2022-11-05T05:55:57.720Z,57.00
2022-11-05T05:56:57.725Z,53.70
2022-11-05T05:57:57.703Z,50.20
2022-11-05T05:58:57.715Z,52.00
2022-11-05T05:59:58.484Z,58.10
2022-11-05T06:00:57.693Z,53.90
2022-11-05T06:01:57.763Z,63.10
2022-11-05T06:02:57.737Z,54.50
2022-11-05T06:03:57.697Z,47.60
2022-11-05T06:04:57.659Z,53.80
2022-11-05T06:05:57.693Z,62.00
2022-11-05T06:06:57.665Z,57.80
2022-11-05T06:07:57.655Z,54.80
2022-11-05T06:08:57.696Z,45.70
2022-11-05T06:09:57.630Z,38.30
2022-11-05T06:10:57.649Z,37.70
2022-11-05T06:11:57.637Z,40.70
2022-11-05T06:12:57.627Z,45.00
2022-11-05T06:13:57.608Z,55.40
2022-11-05T06:14:57.620Z,41.40
2022-11-05T06:15:57.592Z,33.90
2022-11-05T06:16:57.591Z,36.10
2022-11-05T06:17:57.604Z,43.40
2022-11-05T06:18:57.561Z,39.70
2022-11-05T06:19:57.558Z,44.80
2022-11-05T06:20:57.572Z,57.10
2022-11-05T06:21:57.567Z,56.00
2022-11-05T06:22:57.579Z,47.90
2022-11-05T06:23:57.547Z,62.70
2022-11-05T06:24:57.536Z,61.90
2022-11-05T06:25:57.519Z,57.10
2022-11-05T06:26:58.722Z,61.60
2022-11-05T06:27:57.546Z,54.70
2022-11-05T06:28:57.521Z,52.30
2022-11-05T06:29:57.588Z,46.20
2022-11-05T06:30:57.495Z,51.90
2022-11-05T06:31:57.495Z,52.60
2022-11-05T06:32:57.524Z,42.30
2022-11-05T06:33:57.476Z,56.80
2022-11-05T06:34:57.467Z,62.10
2022-11-05T06:35:57.475Z,65.30
2022-11-05T06:36:57.476Z,59.60
2022-11-05T06:37:57.460Z,47.70
2022-11-05T06:38:57.447Z,50.20
2022-11-05T06:39:57.459Z,53.10
2022-11-05T06:40:57.446Z,55.90
2022-11-05T06:42:17.137Z,45.10
2022-11-05T06:42:59.940Z,38.40
2022-11-05T06:43:57.425Z,42.10
2022-11-05T06:44:57.413Z,59.30
2022-11-05T06:45:57.401Z,56.20
2022-11-05T06:46:57.393Z,52.60
2022-11-05T06:47:57.417Z,45.80
2022-11-05T06:48:57.368Z,49.00
2022-11-05T06:49:57.389Z,51.80
2022-11-05T06:50:57.372Z,54.10
2022-11-05T06:51:57.381Z,54.00
2022-11-05T06:52:57.357Z,52.20
2022-11-05T06:53:57.345Z,53.40
2022-11-05T06:54:57.361Z,40.40
2022-11-05T06:55:57.342Z,29.20
2022-11-05T06:56:57.336Z,48.90
2022-11-05T06:57:57.348Z,49.50
2022-11-05T06:58:57.329Z,50.80
2022-11-05T07:00:02.300Z,54.10
2022-11-05T07:00:59.342Z,48.10
2022-11-05T07:01:57.406Z,49.00
2022-11-05T07:02:57.316Z,44.70
2022-11-05T07:03:57.288Z,55.70
2022-11-05T07:04:57.267Z,54.50
2022-11-05T07:05:57.285Z,53.80
2022-11-05T07:06:57.265Z,46.40
2022-11-05T07:07:57.277Z,48.00
2022-11-05T07:08:57.296Z,43.60
2022-11-05T07:09:57.260Z,45.20
2022-11-05T07:10:57.239Z,46.20
2022-11-05T07:11:57.226Z,54.90
2022-11-05T07:12:57.221Z,55.60
2022-11-05T07:13:57.249Z,50.30
2022-11-05T07:14:57.284Z,48.30
2022-11-05T07:15:57.218Z,45.30
2022-11-05T07:16:57.201Z,47.00
2022-11-05T07:17:57.193Z,52.60
2022-11-05T07:18:57.218Z,54.80
2022-11-05T07:19:57.192Z,37.80
2022-11-05T07:20:57.178Z,38.90
2022-11-05T07:21:57.175Z,34.40
2022-11-05T07:22:57.165Z,38.40
2022-11-05T07:23:57.182Z,39.20
2022-11-05T07:24:57.173Z,43.20
2022-11-05T07:25:57.145Z,36.40
2022-11-05T07:26:57.138Z,39.30
2022-11-05T07:27:57.128Z,34.30
2022-11-05T07:28:57.185Z,33.50
2022-11-05T07:29:57.121Z,31.70
2022-11-05T07:30:57.115Z,33.50
2022-11-05T07:31:57.114Z,32.50
2022-11-05T07:32:57.102Z,31.00
2022-11-05T07:33:57.121Z,30.90
2022-11-05T07:34:57.094Z,32.30
2022-11-05T07:35:57.076Z,28.30
2022-11-05T07:36:57.120Z,25.30
2022-11-05T07:37:57.071Z,27.90
2022-11-05T07:39:00.306Z,38.60
2022-11-05T07:39:58.092Z,35.10
2022-11-05T07:40:57.049Z,32.70
2022-11-05T07:41:57.046Z,24.20
2022-11-05T07:42:57.069Z,22.10
2022-11-05T07:43:57.034Z,23.90
2022-11-05T07:44:57.065Z,22.10
2022-11-05T07:45:57.043Z,29.20
2022-11-05T07:46:57.020Z,26.20
2022-11-05T07:47:57.018Z,24.40
2022-11-05T07:48:57.035Z,23.30
2022-11-05T07:49:57.003Z,26.60
2022-11-05T07:50:56.998Z,30.60
2022-11-05T07:51:56.991Z,28.10
2022-11-05T07:52:57.003Z,29.20
2022-11-05T07:53:56.967Z,31.20
2022-11-05T07:54:56.983Z,33.20
2022-11-05T07:55:57.096Z,28.50
2022-11-05T07:56:56.945Z,27.70
2022-11-05T07:57:56.946Z,26.50
2022-11-05T07:58:56.943Z,34.50
2022-11-05T07:59:56.937Z,26.80
2022-11-05T08:00:57.023Z,31.90
2022-11-05T08:01:57.100Z,29.40
2022-11-05T08:03:00.820Z,28.20
2022-11-05T08:03:57.913Z,26.70
2022-11-05T08:04:56.915Z,24.90
2022-11-05T08:05:56.894Z,28.50
2022-11-05T08:06:56.887Z,27.40
2022-11-05T08:07:56.888Z,25.40
2022-11-05T08:08:57.822Z,24.50
2022-11-05T08:09:56.857Z,34.30
2022-11-05T08:10:56.840Z,24.10
2022-11-05T08:12:02.451Z,20.30
2022-11-05T08:12:58.846Z,22.40
2022-11-05T08:13:56.863Z,22.10
2022-11-05T08:14:56.828Z,19.70
2022-11-05T08:15:56.812Z,24.10
2022-11-05T08:16:57.458Z,21.20
2022-11-05T08:17:56.810Z,18.70
2022-11-05T08:18:56.828Z,18.20
2022-11-05T08:19:56.812Z,20.20
2022-11-05T08:20:56.790Z,22.00
2022-11-05T08:21:56.778Z,22.60
2022-11-05T08:22:56.862Z,22.20
2022-11-05T08:23:56.777Z,21.00
2022-11-05T08:25:00.346Z,20.00
2022-11-05T08:25:57.754Z,18.40
2022-11-05T08:26:56.742Z,19.80
2022-11-05T08:27:56.744Z,20.20
2022-11-05T08:28:56.750Z,22.50
2022-11-05T08:29:56.728Z,22.10
2022-11-05T08:30:56.740Z,22.90
2022-11-05T08:31:56.731Z,20.90
2022-11-05T08:32:56.728Z,21.80
2022-11-05T08:34:02.194Z,17.30
2022-11-05T08:34:58.815Z,18.80
2022-11-05T08:35:56.691Z,20.10
2022-11-05T08:36:56.694Z,18.70
2022-11-05T08:37:56.689Z,21.40
2022-11-05T08:38:56.670Z,20.90
2022-11-05T08:39:56.685Z,15.90
2022-11-05T08:40:56.680Z,21.20
2022-11-05T08:41:56.664Z,17.70
2022-11-05T08:42:56.636Z,18.60
2022-11-05T08:43:56.633Z,27.60
2022-11-05T08:44:56.657Z,23.90
2022-11-05T08:45:56.653Z,16.30
2022-11-05T08:46:56.620Z,18.80
2022-11-05T08:47:56.627Z,15.00
2022-11-05T08:48:56.596Z,15.60
2022-11-05T08:49:56.642Z,13.60
2022-11-05T08:50:56.612Z,14.90
2022-11-05T08:51:56.587Z,13.70
2022-11-05T08:52:56.590Z,14.60
2022-11-05T08:53:56.679Z,13.00
2022-11-05T08:54:56.585Z,15.00
2022-11-05T08:55:56.560Z,13.10
2022-11-05T08:56:56.590Z,13.30
2022-11-05T08:57:56.563Z,11.60
2022-11-05T08:58:56.558Z,11.10
2022-11-05T08:59:56.529Z,13.10
2022-11-05T09:01:01.784Z,13.80
2022-11-05T09:01:58.666Z,11.70
2022-11-05T09:02:56.528Z,11.80
2022-11-05T09:03:56.552Z,11.30
2022-11-05T09:04:56.550Z,13.80
2022-11-05T09:05:56.526Z,11.70
2022-11-05T09:06:56.524Z,12.20
2022-11-05T09:08:00.863Z,10.50
2022-11-05T09:08:58.496Z,10.30
2022-11-05T09:09:56.507Z,13.10
2022-11-05T09:10:56.455Z,10.50
2022-11-05T09:12:11.923Z,10.60
2022-11-05T09:12:58.469Z,14.00
2022-11-05T09:13:56.465Z,15.00
2022-11-05T09:14:56.449Z,14.30
2022-11-05T09:15:56.471Z,12.10
2022-11-05T09:16:56.427Z,10.40
2022-11-05T09:17:56.422Z,11.00
2022-11-05T09:18:56.436Z,8.80
2022-11-05T09:19:56.406Z,10.50
2022-11-05T09:20:56.446Z,9.50
2022-11-05T09:21:56.386Z,11.10
2022-11-05T09:22:56.404Z,9.70
2022-11-05T09:23:56.394Z,7.70
2022-11-05T09:24:56.369Z,8.70
2022-11-05T09:25:56.482Z,10.20
2022-11-05T09:26:56.358Z,10.90
2022-11-05T09:27:56.369Z,9.30
2022-11-05T09:28:56.355Z,7.60
2022-11-05T09:29:56.351Z,9.70
2022-11-05T09:30:56.350Z,9.20
2022-11-05T09:31:56.327Z,8.50
2022-11-05T09:32:56.338Z,7.30
2022-11-05T09:33:56.343Z,9.00
2022-11-05T09:34:56.335Z,8.30
2022-11-05T09:35:56.323Z,10.80
2022-11-05T09:36:56.305Z,9.50
2022-11-05T09:38:00.737Z,8.90
2022-11-05T09:38:57.304Z,10.00
2022-11-05T09:39:56.282Z,8.80
2022-11-05T09:40:56.275Z,12.50
2022-11-05T09:41:56.316Z,8.90
2022-11-05T09:42:56.257Z,9.00
2022-11-05T09:43:56.269Z,7.40
2022-11-05T09:44:56.233Z,8.70
2022-11-05T09:45:57.299Z,8.80
2022-11-05T09:46:56.330Z,7.90
2022-11-05T09:47:57.031Z,8.00
2022-11-05T09:48:56.277Z,9.10
2022-11-05T09:49:56.302Z,10.60
2022-11-05T09:50:56.398Z,8.80
2022-11-05T09:51:56.341Z,7.30
2022-11-05T09:52:56.407Z,9.40
2022-11-05T09:53:56.287Z,8.10
2022-11-05T09:54:56.274Z,7.60
2022-11-05T09:55:56.290Z,6.40
2022-11-05T09:56:56.228Z,9.40
2022-11-05T09:57:56.261Z,6.30
2022-11-05T09:58:56.205Z,9.40
2022-11-05T09:59:56.305Z,8.70
2022-11-05T10:00:56.390Z,9.50
2022-11-05T10:01:56.408Z,7.90
2022-11-05T10:02:56.294Z,8.20
2022-11-05T10:03:56.211Z,9.40
2022-11-05T10:04:56.956Z,8.80
2022-11-05T10:05:56.222Z,11.70
2022-11-05T10:06:56.140Z,9.70
2022-11-05T10:07:56.160Z,8.10
2022-11-05T10:08:56.245Z,8.30
2022-11-05T10:09:56.145Z,9.80
2022-11-05T10:10:56.094Z,8.00
2022-11-05T10:11:57.041Z,9.60
2022-11-05T10:12:56.103Z,8.90
2022-11-05T10:13:56.094Z,9.20
2022-11-05T10:14:56.135Z,8.30
2022-11-05T10:15:56.240Z,10.70
2022-11-05T10:16:57.045Z,10.30
2022-11-05T10:17:56.089Z,11.40
2022-11-05T10:18:56.597Z,8.40
2022-11-05T10:19:56.188Z,7.90
2022-11-05T10:20:56.084Z,9.10
2022-11-05T10:22:12.272Z,8.30
2022-11-05T10:22:58.029Z,8.70
2022-11-05T10:23:56.058Z,10.80
2022-11-05T10:24:56.067Z,9.30
2022-11-05T10:25:56.010Z,8.50
2022-11-05T10:26:56.010Z,9.10
2022-11-05T10:27:56.035Z,10.30
2022-11-05T10:28:56.039Z,8.30
2022-11-05T10:29:56.099Z,6.70
2022-11-05T10:30:56.026Z,7.40
2022-11-05T10:31:55.990Z,6.80
2022-11-05T10:32:55.986Z,7.60
2022-11-05T10:33:56.026Z,7.50
2022-11-05T10:34:56.000Z,6.50
2022-11-05T10:35:56.011Z,7.10
2022-11-05T10:36:55.995Z,8.00
2022-11-05T10:37:55.963Z,8.10
2022-11-05T10:38:56.474Z,9.00
2022-11-05T10:39:55.992Z,7.80
2022-11-05T10:40:55.948Z,6.80
2022-11-05T10:41:55.950Z,6.10
2022-11-05T10:42:55.959Z,7.00
2022-11-05T10:43:55.930Z,6.50
2022-11-05T10:44:55.922Z,9.10
2022-11-05T10:45:56.003Z,8.80
2022-11-05T10:46:55.956Z,7.10
2022-11-05T10:47:55.907Z,7.30
2022-11-05T10:48:55.909Z,5.00
2022-11-05T10:49:55.918Z,5.80
2022-11-05T10:50:55.910Z,5.30
2022-11-05T10:51:55.900Z,6.00
2022-11-05T10:52:56.917Z,7.60
2022-11-05T10:54:00.506Z,8.10
2022-11-05T10:54:57.886Z,5.90
2022-11-05T10:55:55.892Z,5.60
2022-11-05T10:56:55.865Z,4.90
2022-11-05T10:57:55.870Z,4.20
2022-11-05T10:58:55.894Z,8.50
2022-11-05T10:59:55.858Z,6.70
2022-11-05T11:00:55.924Z,7.10
2022-11-05T11:01:56.029Z,5.30
2022-11-05T11:02:55.847Z,5.60
2022-11-05T11:03:55.813Z,8.60
2022-11-05T11:04:55.825Z,4.70
2022-11-05T11:05:55.835Z,5.40
2022-11-05T11:06:55.816Z,7.00
2022-11-05T11:07:55.820Z,6.50
2022-11-05T11:08:55.875Z,5.90
2022-11-05T11:09:55.817Z,5.00
2022-11-05T11:10:55.826Z,5.30
2022-11-05T11:14:52.068Z,4.30
2022-11-05T11:15:53.176Z,4.40
2022-11-05T11:16:53.232Z,5.40
2022-11-05T11:17:53.228Z,4.30
2022-11-05T11:18:53.168Z,6.50
2022-11-05T11:19:53.157Z,4.30
2022-11-05T11:20:53.148Z,4.20
2022-11-05T11:21:53.168Z,4.70
2022-11-05T11:22:53.153Z,6.00
2022-11-05T11:23:53.133Z,5.20
2022-11-05T11:24:53.128Z,5.10
2022-11-05T11:25:53.119Z,5.00
2022-11-05T11:26:53.135Z,4.70
2022-11-05T11:27:53.107Z,6.00
2022-11-05T11:28:53.101Z,5.10
2022-11-05T11:29:53.094Z,5.10
2022-11-05T11:30:53.089Z,3.40
2022-11-05T11:31:53.093Z,4.70
2022-11-05T11:32:53.094Z,4.70
2022-11-05T11:33:53.109Z,3.90
2022-11-05T11:34:53.090Z,4.10
2022-11-05T11:35:53.073Z,4.50
2022-11-05T11:36:53.053Z,3.20
2022-11-05T11:37:53.077Z,5.00
2022-11-05T11:38:53.072Z,5.40
2022-11-05T11:39:54.069Z,4.30
2022-11-05T11:40:53.054Z,3.80
2022-11-05T11:41:53.036Z,4.80
2022-11-05T11:42:53.080Z,3.80
2022-11-05T11:43:53.013Z,7.10
2022-11-05T11:44:53.013Z,5.00
2022-11-05T11:45:53.022Z,6.10
2022-11-05T11:46:53.001Z,4.40
2022-11-05T11:47:53.135Z,4.00
2022-11-05T11:48:52.990Z,4.60
2022-11-05T11:49:52.976Z,3.60
2022-11-05T11:50:52.991Z,4.60
2022-11-05T11:51:52.974Z,5.50
2022-11-05T11:52:52.966Z,5.70
2022-11-05T11:53:52.977Z,4.80
2022-11-05T11:54:52.949Z,4.40
2022-11-05T11:55:52.945Z,8.70
2022-11-05T11:56:52.961Z,3.50
2022-11-05T11:57:52.940Z,6.80
2022-11-05T11:58:52.965Z,4.80
2022-11-05T12:00:09.643Z,5.30
2022-11-05T12:00:54.940Z,4.80
2022-11-05T12:01:53.029Z,5.60
2022-11-05T12:02:55.963Z,4.60
2022-11-05T12:03:53.903Z,6.40
2022-11-05T12:04:52.897Z,4.50
2022-11-05T12:05:52.880Z,4.60
2022-11-05T12:06:53.782Z,3.40
2022-11-05T12:07:52.872Z,4.30
2022-11-05T12:08:59.523Z,4.50
2022-11-05T12:09:54.872Z,3.70
2022-11-05T12:10:52.850Z,6.00
2022-11-05T12:11:52.857Z,4.90
2022-11-05T12:12:52.878Z,6.70
2022-11-05T12:13:52.841Z,5.40
2022-11-05T12:14:52.873Z,5.70
2022-11-05T12:15:52.838Z,6.10
2022-11-05T12:16:52.823Z,5.60
2022-11-05T12:17:52.833Z,4.30
2022-11-05T12:18:52.817Z,5.10
2022-11-05T12:19:52.827Z,4.90
2022-11-05T12:20:57.834Z,6.00
2022-11-05T12:21:54.786Z,6.30
2022-11-05T12:22:52.809Z,6.00
2022-11-05T12:23:52.783Z,5.90
2022-11-05T12:24:52.776Z,3.60
2022-11-05T12:25:52.758Z,7.10
2022-11-05T12:26:52.779Z,5.40
2022-11-05T12:27:53.760Z,5.00
2022-11-05T12:29:17.233Z,7.00
2022-11-05T12:29:54.743Z,5.80
2022-11-05T12:30:52.743Z,7.00
2022-11-05T12:31:52.742Z,7.30
2022-11-05T12:32:52.776Z,7.00
2022-11-05T12:33:52.702Z,5.70
2022-11-05T12:34:52.710Z,7.30
2022-11-05T12:35:57.561Z,5.00
2022-11-05T12:36:54.710Z,4.80
2022-11-05T12:37:52.697Z,5.80
2022-11-05T12:38:52.682Z,3.90
2022-11-05T12:39:52.734Z,4.90
2022-11-05T12:40:52.664Z,6.30
2022-11-05T12:41:53.771Z,5.70
2022-11-05T12:42:52.690Z,4.30
2022-11-05T12:43:52.641Z,6.30
2022-11-05T12:44:52.640Z,6.30
2022-11-05T12:45:52.629Z,5.80
2022-11-05T12:46:52.658Z,4.40
2022-11-05T12:47:52.623Z,4.50
2022-11-05T12:48:52.674Z,5.90
2022-11-05T12:49:52.607Z,5.60
2022-11-05T12:50:52.611Z,5.00
2022-11-05T12:51:52.591Z,4.70
2022-11-05T12:52:52.599Z,5.40
2022-11-05T12:53:52.615Z,4.60
2022-11-05T12:54:52.575Z,4.60
2022-11-05T12:55:52.592Z,6.40
2022-11-05T12:56:52.611Z,5.20
2022-11-05T12:57:52.670Z,4.90
2022-11-05T12:58:52.561Z,5.00
2022-11-05T12:59:52.578Z,4.60
2022-11-05T13:00:52.569Z,5.20
2022-11-05T13:01:52.589Z,6.20
2022-11-05T13:02:52.518Z,5.40